Time;durP1;ratioP1;P1;durP2;ratioP2;P2;SDS_P1;SDS_P2;PMS_P1;PMS_P2;Temp;Humidity;BMP_temperature;BMP_pressure;BME280_temperature;BME280_humidity;BME280_pressure;Samples;Min_cycle;Max_cycle;Signal;HPM_P1;HPM_P2
2023/04/06 00:00:52;;;;;;;982.67;881.27;;;1.10;99.90;;;;;;5025642;28;20599;-54
2023/04/06 00:03:20;;;;;;;1849.60;966.80;;;1.10;99.90;;;;;;5020956;28;20309;-54
2023/04/06 00:05:49;;;;;;;868.43;782.83;;;1.10;99.90;;;;;;5028998;28;20293;-55
2023/04/06 00:08:17;;;;;;;980.33;875.27;;;1.10;99.90;;;;;;5029472;28;20700;-57
2023/04/06 00:10:45;;;;;;;840.20;770.80;;;1.10;99.90;;;;;;5029293;28;20226;-54
2023/04/06 00:13:13;;;;;;;892.23;804.70;;;1.10;99.90;;;;;;5029186;28;20854;-54
2023/04/06 00:15:41;;;;;;;917.23;827.70;;;1.10;99.90;;;;;;5029191;28;20297;-54
2023/04/06 00:18:10;;;;;;;763.23;689.57;;;1.00;99.90;;;;;;5024003;28;20827;-54
2023/04/06 00:20:38;;;;;;;1152.63;882.53;;;1.00;99.90;;;;;;5029234;28;20238;-54
2023/04/06 00:23:07;;;;;;;968.97;873.57;;;1.00;99.90;;;;;;5029041;28;20233;-55
2023/04/06 00:25:36;;;;;;;837.50;769.47;;;1.00;99.90;;;;;;5027763;28;20249;-55
2023/04/06 00:28:04;;;;;;;749.17;689.17;;;1.00;99.90;;;;;;5024173;28;20797;-53
2023/04/06 00:30:32;;;;;;;813.77;743.60;;;1.00;99.90;;;;;;5028862;28;20268;-55
2023/04/06 00:33:00;;;;;;;891.33;810.07;;;1.00;99.90;;;;;;5029006;28;20323;-55
2023/04/06 00:35:28;;;;;;;871.67;785.23;;;1.00;99.90;;;;;;5021233;28;20214;-55
2023/04/06 00:37:56;;;;;;;743.23;677.27;;;0.90;99.90;;;;;;5028921;28;20670;-55
2023/04/06 00:40:28;;;;;;;794.27;717.50;;;0.90;99.90;;;;;;5027700;28;20233;-54
2023/04/06 00:42:56;;;;;;;922.53;837.10;;;0.90;99.90;;;;;;5028594;28;20237;-54
2023/04/06 00:45:24;;;;;;;1028.63;743.87;;;0.90;99.90;;;;;;5028790;28;20705;-53
2023/04/06 00:47:52;;;;;;;790.13;719.77;;;0.90;99.90;;;;;;5028867;28;20289;-54
2023/04/06 00:50:20;;;;;;;878.40;784.70;;;0.80;99.90;;;;;;5028959;28;20225;-54
2023/04/06 00:52:48;;;;;;;585.63;538.97;;;0.80;99.90;;;;;;5018557;28;20762;-55
2023/04/06 00:55:16;;;;;;;608.30;553.00;;;0.80;99.90;;;;;;5028465;28;20584;-54
2023/04/06 00:57:45;;;;;;;899.83;811.80;;;0.80;99.90;;;;;;5028797;28;20311;-54
2023/04/06 01:00:15;;;;;;;1999.90;999.90;;;0.80;99.90;;;;;;5028696;28;20301;-56
2023/04/06 01:02:44;;;;;;;1145.03;781.20;;;0.70;99.90;;;;;;5028393;28;20245;-54
2023/04/06 01:05:12;;;;;;;874.33;788.47;;;0.70;99.90;;;;;;5028730;28;20207;-53
2023/04/06 01:07:40;;;;;;;725.87;658.20;;;0.70;99.90;;;;;;5028408;28;20215;-54
2023/04/06 01:10:09;;;;;;;846.23;767.80;;;0.60;99.90;;;;;;5028965;28;20657;-54
2023/04/06 01:12:38;;;;;;;809.27;732.37;;;0.60;99.90;;;;;;5027255;28;20674;-55
2023/04/06 01:15:10;;;;;;;1009.20;783.30;;;0.60;99.90;;;;;;5028543;28;20700;-55
2023/04/06 01:17:38;;;;;;;735.77;666.53;;;0.50;99.90;;;;;;5024682;28;20238;-56
2023/04/06 01:20:07;;;;;;;692.20;634.97;;;0.50;99.90;;;;;;5028284;28;20593;-55
2023/04/06 01:22:37;;;;;;;1108.63;654.33;;;0.60;99.90;;;;;;5028293;28;20240;-54
2023/04/06 01:25:05;;;;;;;900.37;735.93;;;0.50;99.90;;;;;;5028333;28;20276;-54
2023/04/06 01:27:33;;;;;;;674.43;605.30;;;0.50;99.90;;;;;;5028445;28;20249;-55
2023/04/06 01:30:01;;;;;;;1209.00;877.30;;;0.50;99.90;;;;;;5028381;28;20271;-55
2023/04/06 01:32:30;;;;;;;1020.03;762.73;;;0.40;99.90;;;;;;5027412;28;20252;-54
2023/04/06 01:34:58;;;;;;;1529.87;802.50;;;0.40;99.90;;;;;;5028195;28;20284;-54
2023/04/06 01:37:26;;;;;;;672.67;609.63;;;0.40;99.90;;;;;;5019951;28;20249;-55
2023/04/06 01:39:55;;;;;;;777.13;607.57;;;0.40;99.90;;;;;;5023192;28;20298;-55
2023/04/06 01:42:23;;;;;;;1484.77;870.33;;;0.40;99.90;;;;;;5027887;28;20312;-55
2023/04/06 01:44:51;;;;;;;1089.27;701.50;;;0.40;99.90;;;;;;5027463;28;20267;-54
2023/04/06 01:47:19;;;;;;;1138.83;697.93;;;0.40;99.90;;;;;;5028532;28;20304;-54
2023/04/06 01:49:47;;;;;;;721.70;592.03;;;0.30;99.90;;;;;;5032307;28;20235;-54
2023/04/06 01:52:15;;;;;;;1999.90;886.37;;;0.30;99.90;;;;;;5032087;28;20673;-54
2023/04/06 01:54:43;;;;;;;1058.43;781.23;;;0.30;99.90;;;;;;5031937;28;20205;-55
2023/04/06 01:57:12;;;;;;;1231.47;770.70;;;0.20;99.90;;;;;;5031877;28;20649;-55
2023/04/06 01:59:40;;;;;;;1213.97;928.87;;;0.20;99.90;;;;;;5031872;28;20297;-54
2023/04/06 02:02:08;;;;;;;588.70;535.40;;;0.20;99.90;;;;;;5027349;28;20802;-54
2023/04/06 02:04:37;;;;;;;1118.80;827.10;;;0.20;99.90;;;;;;5031655;28;20780;-54
2023/04/06 02:07:05;;;;;;;1987.40;911.50;;;0.20;99.90;;;;;;5020192;28;20630;-55
2023/04/06 02:09:33;;;;;;;833.83;695.93;;;0.20;99.90;;;;;;5031764;28;20281;-55
2023/04/06 02:12:01;;;;;;;1999.90;999.90;;;0.20;99.90;;;;;;5031301;28;20343;-55
2023/04/06 02:14:30;;;;;;;945.57;847.07;;;0.20;99.90;;;;;;5030964;28;20700;-54
2023/04/06 02:16:58;;;;;;;837.17;757.37;;;0.20;99.90;;;;;;5031437;28;20293;-54
2023/04/06 02:19:26;;;;;;;834.47;760.63;;;0.20;99.90;;;;;;5031496;28;20226;-55
2023/04/06 02:21:54;;;;;;;861.27;770.43;;;0.20;99.90;;;;;;5031537;28;20268;-55
2023/04/06 02:24:22;;;;;;;691.33;619.13;;;0.10;99.90;;;;;;5031263;28;20322;-54
2023/04/06 02:26:50;;;;;;;1090.73;854.80;;;0.10;99.90;;;;;;5033484;28;20307;-55
2023/04/06 02:29:18;;;;;;;757.07;684.53;;;0.10;99.90;;;;;;5033542;28;20207;-55
2023/04/06 02:31:47;;;;;;;1429.87;972.00;;;0.10;99.90;;;;;;5031457;28;20257;-55
2023/04/06 02:34:17;;;;;;;1294.77;814.83;;;0.10;99.90;;;;;;5031295;28;20596;-54
2023/04/06 02:36:46;;;;;;;783.53;692.97;;;0.10;99.90;;;;;;5031210;28;20222;-54
2023/04/06 02:39:14;;;;;;;1612.87;847.33;;;0.00;99.90;;;;;;5029343;28;20243;-54
2023/04/06 02:41:42;;;;;;;1841.77;808.87;;;0.00;99.90;;;;;;5024730;28;20238;-56
2023/04/06 02:44:10;;;;;;;944.83;704.07;;;0.00;99.90;;;;;;5028193;28;20324;-54
2023/04/06 02:46:38;;;;;;;825.73;750.43;;;0.00;99.90;;;;;;5031277;28;20823;-54
2023/04/06 02:49:07;;;;;;;765.17;684.00;;;0.00;99.90;;;;;;5030998;28;20285;-54
2023/04/06 02:51:36;;;;;;;775.77;696.70;;;-0.10;99.90;;;;;;5030314;28;20801;-54
2023/04/06 02:54:04;;;;;;;1663.60;774.47;;;-0.10;99.90;;;;;;5027619;28;20589;-54
2023/04/06 02:56:32;;;;;;;799.87;725.57;;;-0.10;99.90;;;;;;5024203;28;20301;-55
2023/04/06 02:59:00;;;;;;;883.00;792.17;;;-0.10;99.90;;;;;;5026392;28;20301;-54
2023/04/06 03:01:28;;;;;;;721.50;653.10;;;-0.10;99.90;;;;;;5025068;28;20418;-53
2023/04/06 03:03:56;;;;;;;823.57;666.37;;;-0.10;99.90;;;;;;5030212;28;20323;-54
2023/04/06 03:06:26;;;;;;;925.20;823.03;;;-0.20;99.90;;;;;;5017642;28;20319;-55
2023/04/06 03:08:54;;;;;;;765.43;681.43;;;-0.20;99.90;;;;;;5030726;28;20305;-55
2023/04/06 03:11:22;;;;;;;678.67;609.07;;;-0.10;99.90;;;;;;5030304;28;20695;-55
2023/04/06 03:13:50;;;;;;;598.27;548.83;;;-0.20;99.90;;;;;;5030317;28;20299;-58
2023/04/06 03:16:18;;;;;;;408.87;378.27;;;-0.20;99.90;;;;;;5030485;28;20272;-54
2023/04/06 03:18:46;;;;;;;637.17;581.93;;;-0.20;99.90;;;;;;5030507;28;20213;-55
2023/04/06 03:21:16;;;;;;;875.17;789.50;;;-0.20;99.90;;;;;;5029584;28;20249;-54
2023/04/06 03:23:45;;;;;;;840.53;761.00;;;-0.20;99.90;;;;;;5030332;28;20227;-55
2023/04/06 03:26:13;;;;;;;860.87;777.40;;;-0.30;99.90;;;;;;5029153;28;20205;-54
2023/04/06 03:28:41;;;;;;;949.07;856.17;;;-0.20;99.90;;;;;;5029457;28;20981;-54
2023/04/06 03:31:09;;;;;;;940.60;848.07;;;-0.20;99.90;;;;;;5023224;28;20220;-54
2023/04/06 03:33:37;;;;;;;1739.20;996.73;;;-0.30;99.90;;;;;;5029489;28;20225;-53
2023/04/06 03:36:07;;;;;;;836.43;750.93;;;-0.30;99.90;;;;;;5030352;28;20241;-54
2023/04/06 03:38:35;;;;;;;527.27;479.23;;;-0.30;99.90;;;;;;5028802;28;20251;-54
2023/04/06 03:41:06;;;;;;;784.10;714.37;;;-0.30;99.90;;;;;;5029736;28;20210;-55
2023/04/06 03:43:34;;;;;;;993.67;868.00;;;-0.30;99.90;;;;;;5016931;28;20204;-53
2023/04/06 03:46:02;;;;;;;1681.73;998.77;;;-0.30;99.90;;;;;;5029713;28;20210;-54
2023/04/06 03:48:31;;;;;;;916.17;818.10;;;-0.40;99.90;;;;;;5029840;28;20238;-53
2023/04/06 03:50:59;;;;;;;856.93;776.80;;;-0.30;99.90;;;;;;5028985;28;20247;-56
2023/04/06 03:53:27;;;;;;;901.30;782.63;;;-0.40;99.90;;;;;;5029212;28;20239;-55
2023/04/06 03:55:55;;;;;;;939.77;845.40;;;-0.40;99.90;;;;;;5029355;28;20306;-55
2023/04/06 03:58:24;;;;;;;531.53;483.37;;;-0.40;99.90;;;;;;5029648;28;20739;-55
2023/04/06 04:00:52;;;;;;;478.13;439.67;;;-0.50;99.90;;;;;;5029748;28;20619;-54
2023/04/06 04:03:21;;;;;;;467.23;427.87;;;-0.50;99.90;;;;;;5021075;28;20233;-55
2023/04/06 04:05:49;;;;;;;854.83;768.47;;;-0.50;99.90;;;;;;5029173;28;20232;-55
2023/04/06 04:08:17;;;;;;;601.53;547.67;;;-0.50;99.90;;;;;;5029130;28;20216;-56
2023/04/06 04:10:45;;;;;;;589.20;532.67;;;-0.50;99.90;;;;;;5028642;28;20223;-55
2023/04/06 04:13:13;;;;;;;622.60;570.20;;;-0.50;99.90;;;;;;5023976;28;20347;-55
2023/04/06 04:15:42;;;;;;;765.83;688.20;;;-0.50;99.90;;;;;;5028064;28;20199;-55
2023/04/06 04:18:10;;;;;;;1999.90;914.97;;;-0.50;99.90;;;;;;5029022;28;20232;-55
2023/04/06 04:20:39;;;;;;;730.17;657.47;;;-0.50;99.90;;;;;;5028157;28;20339;-54
2023/04/06 04:23:07;;;;;;;885.33;797.13;;;-0.50;99.90;;;;;;5028952;28;20226;-54
2023/04/06 04:25:35;;;;;;;952.23;618.57;;;-0.50;99.90;;;;;;5029278;28;20313;-55
2023/04/06 04:28:03;;;;;;;878.27;794.97;;;-0.50;99.90;;;;;;5028479;28;20235;-54
2023/04/06 04:30:31;;;;;;;1214.43;852.20;;;-0.50;99.90;;;;;;5029311;28;20213;-54
2023/04/06 04:33:00;;;;;;;881.10;743.10;;;-0.60;99.90;;;;;;5028903;28;20287;-55
2023/04/06 04:35:28;;;;;;;845.47;753.90;;;-0.50;99.90;;;;;;5023323;28;20202;-54
2023/04/06 04:37:56;;;;;;;1298.20;837.10;;;-0.50;99.90;;;;;;5028632;28;20237;-55
2023/04/06 04:40:24;;;;;;;660.53;603.50;;;-0.60;99.90;;;;;;5028170;28;20216;-55
2023/04/06 04:42:52;;;;;;;802.57;723.87;;;-0.50;99.90;;;;;;5022376;28;20706;-55
2023/04/06 04:45:20;;;;;;;742.30;670.17;;;-0.50;99.90;;;;;;5026438;28;20321;-54
2023/04/06 04:47:48;;;;;;;520.90;468.87;;;-0.50;99.90;;;;;;5025924;28;20252;-54
2023/04/06 04:50:18;;;;;;;480.27;437.40;;;-0.50;99.90;;;;;;5025996;28;20218;-55
2023/04/06 04:52:46;;;;;;;1009.17;899.63;;;-0.50;99.90;;;;;;5028009;28;20285;-54
2023/04/06 04:55:14;;;;;;;756.90;676.80;;;-0.50;99.90;;;;;;5027746;28;20235;-55
2023/04/06 04:57:42;;;;;;;630.40;578.60;;;-0.60;99.90;;;;;;5026267;28;20258;-55
2023/04/06 05:00:11;;;;;;;435.80;399.73;;;-0.60;99.90;;;;;;5028035;28;20204;-56
2023/04/06 05:02:39;;;;;;;506.50;462.20;;;-0.60;99.90;;;;;;5026089;28;20777;-53
2023/04/06 05:05:09;;;;;;;666.23;603.80;;;-0.60;99.90;;;;;;5028184;28;20232;-56
2023/04/06 05:07:38;;;;;;;755.30;682.23;;;-0.50;99.90;;;;;;5026002;28;20204;-55
2023/04/06 05:10:07;;;;;;;560.77;513.53;;;-0.50;99.90;;;;;;5027630;28;20290;-54
2023/04/06 05:12:35;;;;;;;586.67;526.80;;;-0.50;99.90;;;;;;5024618;28;20320;-54
2023/04/06 05:15:04;;;;;;;629.83;577.60;;;-0.50;99.90;;;;;;5028446;28;20205;-55
2023/04/06 05:17:32;;;;;;;645.17;581.17;;;-0.50;99.90;;;;;;5026504;28;20624;-54
2023/04/06 05:20:00;;;;;;;578.17;529.47;;;-0.40;99.90;;;;;;5020510;28;20219;-54
2023/04/06 05:22:28;;;;;;;653.67;593.67;;;-0.40;99.90;;;;;;5027850;28;20324;-54
2023/04/06 05:24:58;;;;;;;604.13;551.83;;;-0.40;99.90;;;;;;5032165;28;20318;-54
2023/04/06 05:27:26;;;;;;;581.77;531.23;;;-0.20;99.90;;;;;;5031537;28;20212;-56
2023/04/06 05:29:53;;;;;;;624.13;560.63;;;0.00;99.90;;;;;;5032259;28;20298;-56
2023/04/06 05:32:24;;;;;;;604.80;545.17;;;0.30;99.90;;;;;;5028326;28;20224;-55
2023/04/06 05:34:52;;;;;;;657.70;589.80;;;0.40;99.90;;;;;;5019316;28;20206;-55
2023/04/06 05:37:20;;;;;;;624.87;570.60;;;0.60;99.90;;;;;;5032356;28;20210;-54
2023/04/06 05:39:48;;;;;;;732.23;671.97;;;0.80;99.90;;;;;;5020936;28;20323;-54
2023/04/06 05:42:18;;;;;;;572.87;531.03;;;0.90;99.90;;;;;;5023064;28;20238;-55
2023/04/06 05:44:46;;;;;;;894.43;807.60;;;1.10;99.90;;;;;;5030742;28;20322;-56
2023/04/06 05:47:14;;;;;;;793.50;722.27;;;1.10;99.90;;;;;;5031265;28;21017;-54
2023/04/06 05:49:43;;;;;;;719.30;655.97;;;1.20;99.90;;;;;;5030546;28;20210;-55
2023/04/06 05:52:11;;;;;;;1189.13;850.47;;;1.50;99.90;;;;;;5031443;28;20237;-55
2023/04/06 05:54:39;;;;;;;955.53;851.30;;;1.80;99.90;;;;;;5031341;28;20297;-54
2023/04/06 05:57:07;;;;;;;1051.67;892.73;;;1.80;99.90;;;;;;5029786;28;20298;-55
2023/04/06 05:59:36;;;;;;;855.87;771.57;;;1.90;99.90;;;;;;5030513;28;20292;-54
2023/04/06 06:02:04;;;;;;;1093.73;903.27;;;2.00;99.90;;;;;;5026629;28;20226;-55
2023/04/06 06:04:32;;;;;;;1664.57;999.90;;;2.20;99.90;;;;;;5029922;28;20210;-55
2023/04/06 06:07:00;;;;;;;1456.63;986.20;;;2.20;99.90;;;;;;5031469;28;20252;-55
2023/04/06 06:09:28;;;;;;;1081.43;800.50;;;2.10;99.90;;;;;;5029606;28;20705;-55
2023/04/06 06:11:56;;;;;;;1039.10;851.03;;;2.00;99.90;;;;;;5030933;28;20320;-55
2023/04/06 06:14:24;;;;;;;829.20;746.10;;;2.10;99.90;;;;;;5030799;28;20320;-55
2023/04/06 06:16:54;;;;;;;960.07;825.67;;;2.20;99.90;;;;;;5030560;28;20205;-55
2023/04/06 06:19:22;;;;;;;794.27;666.60;;;2.40;99.90;;;;;;5030518;28;20208;-55
2023/04/06 06:21:50;;;;;;;859.97;772.37;;;2.70;99.90;;;;;;5030137;28;20737;-56
2023/04/06 06:24:18;;;;;;;980.77;872.50;;;2.90;99.90;;;;;;5030770;28;20214;-55
2023/04/06 06:26:46;;;;;;;884.87;794.57;;;3.20;99.90;;;;;;5020791;28;20229;-55
2023/04/06 06:29:14;;;;;;;1496.90;999.90;;;3.50;99.90;;;;;;5030550;28;20245;-55
2023/04/06 06:31:42;;;;;;;1999.90;999.90;;;3.90;99.90;;;;;;5030822;28;20946;-54
2023/04/06 06:34:12;;;;;;;1999.90;999.90;;;4.40;99.90;;;;;;5028007;28;20294;-56
2023/04/06 06:36:41;;;;;;;1999.90;999.90;;;4.90;99.90;;;;;;5030891;28;20627;-55
2023/04/06 06:39:09;;;;;;;1999.90;999.90;;;5.20;99.90;;;;;;5030531;28;20317;-56
2023/04/06 06:41:37;;;;;;;1999.90;690.43;;;5.40;99.90;;;;;;5028789;28;20292;-55
2023/04/06 06:44:05;;;;;;;1999.90;893.37;;;5.80;99.90;;;;;;5030143;28;20810;-56
2023/04/06 06:46:34;;;;;;;1999.90;966.80;;;6.10;99.90;;;;;;5020222;28;20317;-56
2023/04/06 06:49:02;;;;;;;1999.90;845.67;;;6.40;99.90;;;;;;5023313;28;20237;-56
2023/04/06 06:51:32;;;;;;;1999.90;917.70;;;6.70;99.90;;;;;;5029731;28;20226;-56
2023/04/06 06:54:00;;;;;;;1999.90;802.73;;;6.80;99.90;;;;;;5030670;28;20868;-54
2023/04/06 06:56:28;;;;;;;1999.90;826.90;;;6.90;99.90;;;;;;5029860;28;20293;-56
2023/04/06 06:58:56;;;;;;;1999.90;868.60;;;7.10;99.90;;;;;;5030491;28;20210;-55
2023/04/06 07:01:24;;;;;;;1999.90;798.27;;;7.30;99.90;;;;;;5028674;28;20230;-56
2023/04/06 07:03:52;;;;;;;1999.90;838.27;;;7.50;99.90;;;;;;5030550;28;20221;-56
2023/04/06 07:06:20;;;;;;;1999.90;888.03;;;7.80;99.90;;;;;;5028583;28;20714;-55
2023/04/06 07:08:50;;;;;;;1999.90;925.83;;;8.00;99.90;;;;;;5030370;28;20206;-54
2023/04/06 07:11:18;;;;;;;1999.90;805.40;;;8.00;99.90;;;;;;5028721;28;20333;-56
2023/04/06 07:13:46;;;;;;;1999.90;970.50;;;8.10;99.90;;;;;;5030411;28;20206;-55
2023/04/06 07:16:14;;;;;;;1999.90;852.80;;;8.40;99.90;;;;;;5028894;28;20288;-55
2023/04/06 07:18:42;;;;;;;1999.90;878.63;;;8.50;99.90;;;;;;5030038;28;20268;-55
2023/04/06 07:21:11;;;;;;;1999.90;886.17;;;8.60;99.90;;;;;;5029101;28;20241;-55
2023/04/06 07:23:39;;;;;;;1999.90;906.60;;;8.90;99.90;;;;;;5029302;28;20214;-56
2023/04/06 07:26:09;;;;;;;1999.90;956.10;;;8.90;99.90;;;;;;5029423;28;20263;-55
2023/04/06 07:28:37;;;;;;;1999.90;837.03;;;9.00;99.90;;;;;;5029040;28;20214;-55
2023/04/06 07:31:05;;;;;;;1999.90;940.73;;;9.00;99.90;;;;;;5029176;28;20215;-55
2023/04/06 07:33:33;;;;;;;1999.90;999.27;;;9.10;99.90;;;;;;5028700;28;20260;-56
2023/04/06 07:36:01;;;;;;;1999.90;921.87;;;9.20;99.90;;;;;;5029361;28;20244;-56
2023/04/06 07:38:30;;;;;;;1999.90;982.53;;;9.20;99.90;;;;;;5029959;28;20202;-56
2023/04/06 07:40:58;;;;;;;1999.90;971.00;;;9.10;99.90;;;;;;5022728;28;20234;-57
2023/04/06 07:43:27;;;;;;;1999.90;999.90;;;9.30;99.90;;;;;;5025023;28;20234;-56
2023/04/06 07:45:57;;;;;;;1999.90;999.90;;;9.40;99.90;;;;;;5028260;28;20292;-56
2023/04/06 07:48:25;;;;;;;1999.90;971.00;;;9.60;99.90;;;;;;5027753;28;20207;-57
2023/04/06 07:50:53;;;;;;;1999.90;959.00;;;9.70;99.90;;;;;;5029499;28;20233;-56
2023/04/06 07:53:21;;;;;;;1999.90;999.90;;;9.80;99.90;;;;;;5028008;28;20273;-55
2023/04/06 07:55:49;;;;;;;1999.90;999.90;;;9.80;99.90;;;;;;5029355;28;20294;-57
2023/04/06 07:58:17;;;;;;;1999.90;924.10;;;9.80;99.90;;;;;;5028143;28;20297;-57
2023/04/06 08:00:46;;;;;;;1999.90;987.63;;;9.90;99.90;;;;;;5029306;28;20246;-57
2023/04/06 08:03:14;;;;;;;1999.90;960.20;;;9.60;99.90;;;;;;5027212;28;20313;-57
2023/04/06 08:05:43;;;;;;;1999.90;982.33;;;9.50;99.90;;;;;;5029265;28;20199;-56
2023/04/06 08:08:11;;;;;;;1999.90;930.70;;;9.40;99.90;;;;;;5028151;28;20226;-56
2023/04/06 08:10:39;;;;;;;1999.90;992.23;;;9.40;99.90;;;;;;5028954;28;20214;-56
2023/04/06 08:13:08;;;;;;;1999.90;999.90;;;9.20;99.90;;;;;;5027523;28;20246;-55
2023/04/06 08:15:36;;;;;;;1999.90;999.90;;;9.20;99.90;;;;;;5027131;28;20202;-56
2023/04/06 08:18:05;;;;;;;1999.90;999.90;;;9.30;99.90;;;;;;5028466;28;20210;-56
2023/04/06 08:20:33;;;;;;;1999.90;999.90;;;9.20;99.90;;;;;;5028839;28;20217;-57
2023/04/06 08:23:02;;;;;;;1999.90;999.90;;;9.20;99.90;;;;;;5027203;28;20360;-57
2023/04/06 08:25:30;;;;;;;1999.90;999.90;;;9.10;99.90;;;;;;5028684;28;20664;-55
2023/04/06 08:27:58;;;;;;;1999.90;999.90;;;9.20;99.90;;;;;;5028104;28;20257;-55
2023/04/06 08:30:26;;;;;;;1999.90;999.90;;;9.20;99.90;;;;;;5028350;28;20260;-56
2023/04/06 08:32:54;;;;;;;1999.90;999.90;;;9.20;99.90;;;;;;5027589;28;20313;-56
2023/04/06 08:35:24;;;;;;;1999.90;999.90;;;9.10;99.90;;;;;;5018378;28;20207;-56
2023/04/06 08:37:52;;;;;;;1999.90;999.90;;;9.00;99.90;;;;;;5027704;28;20203;-55
2023/04/06 08:40:20;;;;;;;1999.90;999.90;;;9.10;99.90;;;;;;5023415;28;20930;-57
2023/04/06 08:42:52;;;;;;;1999.90;999.90;;;9.00;99.90;;;;;;5024331;28;20233;-56
2023/04/06 08:45:21;;;;;;;1999.90;999.90;;;8.90;99.90;;;;;;5027373;28;20216;-55
2023/04/06 08:47:50;;;;;;;1999.90;999.90;;;9.10;99.90;;;;;;5024873;28;20711;-55
2023/04/06 08:50:19;;;;;;;1999.90;999.90;;;9.10;99.90;;;;;;5027504;28;20206;-56
2023/04/06 08:52:49;;;;;;;1999.90;999.90;;;9.20;99.90;;;;;;5026692;28;20302;-55
2023/04/06 08:55:17;;;;;;;1999.90;999.90;;;9.20;99.90;;;;;;5026378;28;20248;-58
2023/04/06 08:57:47;;;;;;;1999.90;999.90;;;9.30;99.90;;;;;;5028195;28;20229;-55
2023/04/06 09:00:17;;;;;;;1999.90;999.90;;;9.20;99.90;;;;;;5027502;28;20324;-56
2023/04/06 09:02:47;;;;;;;1999.90;999.90;;;9.30;99.90;;;;;;5027349;28;20669;-56
2023/04/06 09:05:16;;;;;;;1999.90;999.90;;;9.40;99.90;;;;;;5025155;28;20232;-56
2023/04/06 09:07:46;;;;;;;1999.90;999.90;;;9.40;99.90;;;;;;5018309;28;20239;-56
2023/04/06 09:10:16;;;;;;;1999.90;999.90;;;9.30;99.90;;;;;;5023412;28;20206;-56
2023/04/06 09:12:47;;;;;;;1999.90;999.90;;;9.30;99.90;;;;;;5025380;28;20364;-55
2023/04/06 09:15:22;;;;;;;1999.90;999.90;;;9.30;99.90;;;;;;5025682;28;20252;-56
2023/04/06 09:17:54;;;;;;;1999.90;999.90;;;9.20;99.90;;;;;;5024237;28;20233;-56
2023/04/06 09:20:25;;;;;;;1999.90;999.90;;;9.20;99.90;;;;;;5027168;28;20651;-55
2023/04/06 09:22:54;;;;;;;1999.90;999.90;;;9.20;99.90;;;;;;5024155;28;20229;-56
2023/04/06 09:25:26;;;;;;;1999.90;999.90;;;9.30;99.90;;;;;;5024805;28;20214;-55
2023/04/06 09:28:01;;;;;;;1999.90;999.90;;;9.40;99.90;;;;;;5027515;28;20288;-56
2023/04/06 09:30:30;;;;;;;1999.90;999.90;;;9.50;99.90;;;;;;5025425;28;20213;-56
2023/04/06 09:32:59;;;;;;;1999.90;999.90;;;9.50;99.90;;;;;;5025111;28;20648;-55
2023/04/06 09:35:29;;;;;;;1999.90;999.90;;;9.60;99.90;;;;;;5026778;28;20313;-56
2023/04/06 09:37:57;;;;;;;1999.90;999.90;;;9.60;99.90;;;;;;5025684;28;20460;-55
2023/04/06 09:40:28;;;;;;;1999.90;999.90;;;9.70;99.90;;;;;;5027514;28;20309;-56
2023/04/06 09:42:59;;;;;;;1999.90;999.90;;;9.80;99.90;;;;;;5026493;28;20234;-56
2023/04/06 09:45:30;;;;;;;1999.90;999.90;;;9.80;99.90;;;;;;5022549;28;20203;-55
2023/04/06 09:47:58;;;;;;;1999.90;999.90;;;9.80;99.90;;;;;;5024152;28;20219;-55
2023/04/06 09:50:28;;;;;;;1999.90;999.90;;;9.70;99.90;;;;;;5025393;28;20770;-54
2023/04/06 09:52:59;;;;;;;1999.90;999.90;;;9.70;99.90;;;;;;5025248;28;20987;-56
2023/04/06 09:55:34;;;;;;;1999.90;999.90;;;9.80;99.90;;;;;;5024688;28;20631;-56
2023/04/06 09:58:06;;;;;;;1999.90;999.90;;;10.00;99.90;;;;;;5026286;28;20882;-56
2023/04/06 10:00:43;;;;;;;1999.90;999.90;;;10.10;99.90;;;;;;5021807;28;20238;-56
2023/04/06 10:03:18;;;;;;;1999.90;999.90;;;10.10;99.90;;;;;;5024918;28;20608;-57
2023/04/06 10:05:51;;;;;;;1999.90;999.90;;;10.10;99.90;;;;;;5025404;28;20213;-55
2023/04/06 10:08:21;;;;;;;1999.90;999.90;;;10.20;99.90;;;;;;5026230;28;20226;-55
2023/04/06 10:10:52;;;;;;;1999.90;999.90;;;10.30;99.90;;;;;;5028123;28;20699;-56
2023/04/06 10:13:20;;;;;;;1999.90;999.90;;;10.20;99.90;;;;;;5029963;28;20234;-56
2023/04/06 10:15:51;;;;;;;1999.90;999.90;;;10.30;99.90;;;;;;5029516;28;20288;-57
2023/04/06 10:18:20;;;;;;;1999.90;999.90;;;10.40;99.90;;;;;;5023981;28;20213;-56
2023/04/06 10:20:51;;;;;;;1999.90;999.90;;;10.30;99.90;;;;;;5019902;28;20206;-56
2023/04/06 10:23:27;;;;;;;1999.90;999.90;;;10.20;99.90;;;;;;5030502;28;20797;-55
2023/04/06 10:25:58;;;;;;;1999.90;999.90;;;10.30;99.90;;;;;;5024463;28;20305;-56
2023/04/06 10:28:27;;;;;;;1999.90;999.90;;;10.30;99.90;;;;;;5030445;28;20258;-56
2023/04/06 10:30:59;;;;;;;1999.90;999.90;;;10.40;99.90;;;;;;5029235;28;20286;-56
2023/04/06 10:33:27;;;;;;;1999.90;999.90;;;10.40;99.90;;;;;;5031326;28;20219;-56
2023/04/06 10:35:56;;;;;;;1999.90;999.90;;;10.30;99.90;;;;;;5028544;28;20237;-56
2023/04/06 10:38:35;;;;;;;1999.90;999.90;;;10.40;99.90;;;;;;5031377;28;20206;-56
2023/04/06 10:41:11;;;;;;;1999.90;999.90;;;10.50;99.90;;;;;;5029031;28;20210;-55
2023/04/06 10:43:40;;;;;;;1999.90;999.90;;;10.50;99.90;;;;;;5029881;28;20217;-56
2023/04/06 10:46:10;;;;;;;1999.90;999.90;;;10.60;99.90;;;;;;5029458;28;20210;-57
2023/04/06 10:48:40;;;;;;;1999.90;999.90;;;10.60;99.90;;;;;;5030161;28;20253;-56
2023/04/06 10:51:13;;;;;;;1999.90;999.90;;;10.60;99.90;;;;;;5029144;28;20210;-56
2023/04/06 10:53:43;;;;;;;1999.90;999.90;;;10.50;99.90;;;;;;5027885;28;20230;-55
2023/04/06 10:56:14;;;;;;;1999.90;999.90;;;10.70;99.90;;;;;;5029546;28;20218;-56
2023/04/06 10:58:46;;;;;;;1999.90;999.90;;;10.80;99.90;;;;;;5026533;28;20260;-57
2023/04/06 11:01:16;;;;;;;1999.90;999.90;;;10.80;99.90;;;;;;5029202;28;20244;-56
2023/04/06 11:03:45;;;;;;;1999.90;999.90;;;10.90;99.90;;;;;;5029614;28;20248;-56
2023/04/06 11:06:19;;;;;;;1999.90;999.90;;;10.90;99.90;;;;;;5030030;28;20256;-56
2023/04/06 11:08:48;;;;;;;1999.90;999.90;;;10.90;99.90;;;;;;5027644;28;20593;-55
2023/04/06 11:11:19;;;;;;;1999.90;999.90;;;11.00;99.90;;;;;;5008133;28;20222;-56
2023/04/06 11:13:50;;;;;;;1999.90;999.90;;;11.00;99.90;;;;;;5028653;28;20929;-56
2023/04/06 11:16:20;;;;;;;1999.90;999.90;;;11.00;99.90;;;;;;5030010;28;20238;-56
2023/04/06 11:18:52;;;;;;;1999.90;999.90;;;11.00;99.90;;;;;;5028665;28;20225;-56
2023/04/06 11:21:31;;;;;;;1999.90;999.90;;;11.10;99.90;;;;;;5028437;28;20268;-55
2023/04/06 11:24:08;;;;;;;1999.90;999.90;;;11.10;99.90;;;;;;5029054;28;20237;-56
2023/04/06 11:26:43;;;;;;;1999.90;999.90;;;11.10;99.90;;;;;;5021916;28;20293;-57
2023/04/06 11:29:12;;;;;;;1999.90;999.90;;;11.20;99.90;;;;;;5028974;28;20655;-56
2023/04/06 11:31:41;;;;;;;1999.90;999.90;;;11.20;99.90;;;;;;5025880;28;20529;-55
2023/04/06 11:34:18;;;;;;;1999.90;999.90;;;11.20;99.90;;;;;;5029281;28;20297;-55
2023/04/06 11:36:47;;;;;;;1999.90;999.90;;;11.20;99.90;;;;;;5025153;28;20209;-56
2023/04/06 11:39:22;;;;;;;1999.90;999.90;;;11.20;99.90;;;;;;5029098;28;20202;-56
2023/04/06 11:41:54;;;;;;;1999.90;999.90;;;11.20;99.90;;;;;;5028535;28;20609;-56
2023/04/06 11:44:34;;;;;;;1999.90;999.90;;;11.30;99.90;;;;;;5028862;28;20253;-55
2023/04/06 11:47:03;;;;;;;1999.90;999.90;;;11.30;99.90;;;;;;5029606;28;20206;-56
2023/04/06 11:49:32;;;;;;;1999.90;999.90;;;11.40;99.90;;;;;;5028754;28;20253;-55
2023/04/06 11:52:01;;;;;;;1999.90;999.90;;;11.60;99.90;;;;;;5028766;28;20755;-56
2023/04/06 11:54:34;;;;;;;1999.90;999.90;;;11.70;99.90;;;;;;5028959;28;20268;-55
2023/04/06 11:57:04;;;;;;;1999.90;999.90;;;11.70;99.90;;;;;;5016036;28;20210;-56
2023/04/06 11:59:32;;;;;;;1999.90;999.90;;;11.70;99.90;;;;;;5027337;28;20202;-56
2023/04/06 12:02:03;;;;;;;1999.90;999.90;;;11.70;99.90;;;;;;5027925;28;20591;-55
2023/04/06 12:04:31;;;;;;;1999.90;999.90;;;11.70;99.90;;;;;;5024899;28;20225;-55
2023/04/06 12:07:00;;;;;;;1999.90;999.90;;;12.00;99.90;;;;;;5028002;28;20256;-56
2023/04/06 12:09:28;;;;;;;1999.90;999.90;;;12.10;99.90;;;;;;5028365;28;20257;-56
2023/04/06 12:11:56;;;;;;;1999.90;999.90;;;12.10;99.90;;;;;;5028024;28;20685;-55
2023/04/06 12:14:26;;;;;;;1999.90;999.90;;;12.00;99.90;;;;;;5027881;28;20206;-56
2023/04/06 12:16:54;;;;;;;1999.90;999.90;;;12.00;99.90;;;;;;5029186;28;20264;-56